VJT4TQ EGPH-LPMA
Flight info
| Callsign | VJT4TQ |
|---|---|
| Flight time | N/A |
| Altitude | 40000 |
| Route | GOSAM P600 TRN DCT NIMAT DCT DUB DCT ABAGU DCT CRK/M086F400 DCT OMOKO T16 NAVIX/N0493F400 DCT KICAS |
| Aircraft | C750/M-SBDE3FGHRWXY/S |
Departure
| Time | 2026-04-25 18:33 |
|---|---|
| Airport | Edinburgh Airport (EGPH) |
Arrival
| Time | N/A |
|---|---|
| Airport | Cristiano Ronaldo International Airport (LPMA) |
| Time | Latitude | Longitude | Altitude | Speed | Heading |
|---|---|---|---|---|---|
| 2026-04-25 18:02 | 55.94782 | -3.36891 | 102 ft | 0 kts | 268° |
| 2026-04-25 18:16 | 55.94782 | -3.36884 | 102 ft | 3 kts | 269° |
| 2026-04-25 18:17 | 55.94783 | -3.36844 | 102 ft | 3 kts | 271° |
| 2026-04-25 18:17 | 55.94780 | -3.36805 | 101 ft | 3 kts | 289° |
| 2026-04-25 18:17 | 55.94770 | -3.36772 | 101 ft | 3 kts | 323° |
| 2026-04-25 18:17 | 55.94758 | -3.36760 | 102 ft | 1 kts | 340° |
| 2026-04-25 18:18 | 55.94757 | -3.36759 | 102 ft | 0 kts | 340° |
| 2026-04-25 18:21 | 55.94761 | -3.36761 | 102 ft | 3 kts | 343° |
| 2026-04-25 18:22 | 55.94807 | -3.36777 | 101 ft | 9 kts | 358° |
| 2026-04-25 18:22 | 55.94829 | -3.36778 | 101 ft | 10 kts | 359° |
| 2026-04-25 18:22 | 55.94848 | -3.36779 | 101 ft | 1 kts | 1° |
| 2026-04-25 18:22 | 55.94876 | -3.36783 | 102 ft | 7 kts | 341° |
| 2026-04-25 18:23 | 55.94926 | -3.36838 | 102 ft | 8 kts | 321° |
| 2026-04-25 18:23 | 55.94924 | -3.36902 | 101 ft | 5 kts | 234° |
| 2026-04-25 18:23 | 55.94896 | -3.36983 | 100 ft | 11 kts | 238° |
| 2026-04-25 18:23 | 55.94852 | -3.37111 | 101 ft | 13 kts | 239° |
| 2026-04-25 18:24 | 55.94797 | -3.37275 | 102 ft | 16 kts | 238° |
| 2026-04-25 18:24 | 55.94747 | -3.37423 | 106 ft | 12 kts | 239° |
| 2026-04-25 18:24 | 55.94709 | -3.37535 | 107 ft | 9 kts | 238° |
| 2026-04-25 18:24 | 55.94678 | -3.37627 | 109 ft | 7 kts | 239° |
| 2026-04-25 18:25 | 55.94656 | -3.37692 | 110 ft | 8 kts | 239° |
| 2026-04-25 18:25 | 55.94610 | -3.37828 | 109 ft | 17 kts | 238° |
| 2026-04-25 18:25 | 55.94561 | -3.37970 | 109 ft | 12 kts | 239° |
| 2026-04-25 18:25 | 55.94519 | -3.38092 | 107 ft | 12 kts | 238° |
| 2026-04-25 18:26 | 55.94477 | -3.38218 | 107 ft | 11 kts | 239° |
| 2026-04-25 18:26 | 55.94445 | -3.38311 | 109 ft | 7 kts | 237° |
| 2026-04-25 18:26 | 55.94415 | -3.38404 | 109 ft | 11 kts | 240° |
| 2026-04-25 18:26 | 55.94372 | -3.38529 | 111 ft | 11 kts | 237° |
| 2026-04-25 18:27 | 55.94337 | -3.38630 | 115 ft | 11 kts | 239° |
| 2026-04-25 18:27 | 55.94291 | -3.38767 | 115 ft | 13 kts | 237° |
| 2026-04-25 18:27 | 55.94286 | -3.38862 | 117 ft | 5 kts | 301° |
| 2026-04-25 18:27 | 55.94321 | -3.38902 | 117 ft | 7 kts | 330° |
| 2026-04-25 18:28 | 55.94331 | -3.38912 | 115 ft | 0 kts | 329° |
| 2026-04-25 18:31 | 55.94345 | -3.38927 | 116 ft | 7 kts | 330° |
| 2026-04-25 18:31 | 55.94404 | -3.38972 | 115 ft | 9 kts | 11° |
| 2026-04-25 18:32 | 55.94428 | -3.38926 | 115 ft | 1 kts | 54° |
| 2026-04-25 18:32 | 55.94433 | -3.38912 | 115 ft | 5 kts | 57° |
| 2026-04-25 18:32 | 55.94576 | -3.38496 | 110 ft | 86 kts | 59° |
| 2026-04-25 18:32 | 55.94837 | -3.37726 | 128 ft | 126 kts | 59° |
| 2026-04-25 18:33 | 55.95327 | -3.36283 | 438 ft | 147 kts | 59° |
| 2026-04-25 18:33 | 55.95912 | -3.34640 | 796 ft | 169 kts | 57° |
| 2026-04-25 18:33 | 55.96850 | -3.33087 | 1033 ft | 196 kts | 40° |
| 2026-04-25 18:33 | 55.97938 | -3.31566 | 1655 ft | 200 kts | 43° |
| 2026-04-25 18:34 | 55.99029 | -3.29989 | 2252 ft | 204 kts | 43° |
| 2026-04-25 18:34 | 56.00263 | -3.28645 | 2742 ft | 218 kts | 18° |
| 2026-04-25 18:34 | 56.01772 | -3.28799 | 3403 ft | 219 kts | 340° |
| 2026-04-25 18:34 | 56.02954 | -3.30401 | 4133 ft | 213 kts | 304° |
| 2026-04-25 18:35 | 56.03433 | -3.32835 | 4913 ft | 208 kts | 273° |
| 2026-04-25 18:35 | 56.03267 | -3.35364 | 5653 ft | 200 kts | 263° |
| 2026-04-25 18:35 | 56.02922 | -3.37809 | 6068 ft | 211 kts | 254° |
| 2026-04-25 18:35 | 56.02433 | -3.40360 | 5992 ft | 220 kts | 254° |
| 2026-04-25 18:36 | 56.02018 | -3.42931 | 5988 ft | 216 kts | 256° |
| 2026-04-25 18:36 | 56.01658 | -3.45571 | 5988 ft | 218 kts | 256° |
| 2026-04-25 18:36 | 56.01290 | -3.48216 | 5984 ft | 220 kts | 256° |
| 2026-04-25 18:36 | 56.00909 | -3.50856 | 5979 ft | 216 kts | 256° |
| 2026-04-25 18:37 | 56.00534 | -3.53446 | 5986 ft | 217 kts | 256° |
| 2026-04-25 18:37 | 56.00156 | -3.56079 | 5982 ft | 217 kts | 256° |
| 2026-04-25 18:37 | 55.99783 | -3.58663 | 5984 ft | 212 kts | 256° |
| 2026-04-25 18:37 | 55.99404 | -3.61267 | 6377 ft | 217 kts | 256° |
| 2026-04-25 18:38 | 55.99020 | -3.63876 | 7053 ft | 219 kts | 256° |
| 2026-04-25 18:38 | 55.98630 | -3.66524 | 7736 ft | 219 kts | 256° |
| 2026-04-25 18:38 | 55.98248 | -3.69131 | 8400 ft | 224 kts | 255° |
| 2026-04-25 18:38 | 55.97847 | -3.71865 | 9032 ft | 227 kts | 255° |
| 2026-04-25 18:39 | 55.97444 | -3.74587 | 9709 ft | 229 kts | 255° |
| 2026-04-25 18:39 | 55.97039 | -3.77328 | 10337 ft | 228 kts | 255° |
| 2026-04-25 18:39 | 55.96626 | -3.80116 | 10778 ft | 233 kts | 254° |
| 2026-04-25 18:39 | 55.96213 | -3.82903 | 11347 ft | 233 kts | 254° |
| 2026-04-25 18:40 | 55.95798 | -3.85695 | 11924 ft | 232 kts | 254° |
| 2026-04-25 18:40 | 55.95376 | -3.88528 | 12312 ft | 240 kts | 254° |
| 2026-04-25 18:40 | 55.94949 | -3.91403 | 12921 ft | 238 kts | 254° |
| 2026-04-25 18:40 | 55.94522 | -3.94260 | 13320 ft | 245 kts | 254° |
| 2026-04-25 18:41 | 55.94059 | -3.97200 | 13828 ft | 246 kts | 249° |
| 2026-04-25 18:41 | 55.93370 | -3.99981 | 14332 ft | 245 kts | 240° |
| 2026-04-25 18:41 | 55.92434 | -4.02539 | 14769 ft | 246 kts | 231° |
| 2026-04-25 18:41 | 55.91283 | -4.04788 | 15262 ft | 246 kts | 223° |
| 2026-04-25 18:42 | 55.89930 | -4.06692 | 15669 ft | 250 kts | 214° |
| 2026-04-25 18:42 | 55.88954 | -4.07849 | 16010 ft | 249 kts | 214° |
| 2026-04-25 18:42 | 55.87037 | -4.10187 | 16597 ft | 253 kts | 215° |
| 2026-04-25 18:42 | 55.85582 | -4.11959 | 17116 ft | 254 kts | 214° |
| 2026-04-25 18:43 | 55.84111 | -4.13733 | 17588 ft | 256 kts | 215° |
| 2026-04-25 18:43 | 55.82636 | -4.15511 | 18094 ft | 257 kts | 215° |
| 2026-04-25 18:43 | 55.81145 | -4.17311 | 18543 ft | 260 kts | 215° |
| 2026-04-25 18:43 | 55.79640 | -4.19126 | 18969 ft | 262 kts | 215° |
| 2026-04-25 18:44 | 55.78144 | -4.20933 | 19399 ft | 264 kts | 216° |
| 2026-04-25 18:44 | 55.76635 | -4.22816 | 19844 ft | 266 kts | 217° |
| 2026-04-25 18:44 | 55.75122 | -4.24721 | 20285 ft | 268 kts | 217° |
| 2026-04-25 18:44 | 55.73586 | -4.26631 | 20624 ft | 276 kts | 216° |
| 2026-04-25 18:45 | 55.71934 | -4.28678 | 20651 ft | 303 kts | 216° |
| 2026-04-25 18:45 | 55.70136 | -4.30908 | 20695 ft | 327 kts | 217° |
| 2026-04-25 18:45 | 55.68209 | -4.33294 | 20753 ft | 349 kts | 216° |
| 2026-04-25 18:45 | 55.66157 | -4.35832 | 20804 ft | 369 kts | 216° |
| 2026-04-25 18:46 | 55.64001 | -4.38494 | 20852 ft | 387 kts | 216° |
| 2026-04-25 18:46 | 55.61775 | -4.41237 | 21402 ft | 390 kts | 216° |
| 2026-04-25 18:46 | 55.59558 | -4.43964 | 21975 ft | 393 kts | 216° |
| 2026-04-25 18:46 | 55.57294 | -4.46751 | 22497 ft | 397 kts | 216° |
| 2026-04-25 18:47 | 55.55025 | -4.49538 | 23109 ft | 398 kts | 216° |
| 2026-04-25 18:47 | 55.52731 | -4.52351 | 23624 ft | 402 kts | 217° |
| 2026-04-25 18:47 | 55.50425 | -4.55175 | 24113 ft | 405 kts | 217° |
| 2026-04-25 18:47 | 55.48096 | -4.58023 | 24579 ft | 408 kts | 216° |
| 2026-04-25 18:48 | 55.45728 | -4.60819 | 25003 ft | 412 kts | 212° |
| 2026-04-25 18:48 | 55.43136 | -4.63033 | 25430 ft | 416 kts | 206° |
| 2026-04-25 18:48 | 55.40513 | -4.65075 | 25874 ft | 418 kts | 206° |
| 2026-04-25 18:48 | 55.37847 | -4.67200 | 26334 ft | 421 kts | 206° |
| 2026-04-25 18:49 | 55.35163 | -4.69330 | 26779 ft | 424 kts | 206° |
| 2026-04-25 18:49 | 55.32456 | -4.71442 | 27231 ft | 427 kts | 206° |
| 2026-04-25 18:49 | 55.29734 | -4.73563 | 27692 ft | 430 kts | 206° |
| 2026-04-25 18:49 | 55.26990 | -4.75714 | 28146 ft | 433 kts | 206° |
| 2026-04-25 18:50 | 55.24230 | -4.77879 | 28604 ft | 436 kts | 206° |
| 2026-04-25 18:50 | 55.21449 | -4.80047 | 29054 ft | 439 kts | 206° |
| 2026-04-25 18:50 | 55.18646 | -4.82225 | 29495 ft | 442 kts | 205° |
| 2026-04-25 18:50 | 55.15830 | -4.84413 | 29903 ft | 445 kts | 206° |
| 2026-04-25 18:51 | 55.13028 | -4.86593 | 30313 ft | 448 kts | 206° |
| 2026-04-25 18:51 | 55.11097 | -4.88094 | 30563 ft | 449 kts | 206° |
| 2026-04-25 18:51 | 55.07292 | -4.91039 | 31057 ft | 453 kts | 205° |
| 2026-04-25 18:51 | 55.04405 | -4.93266 | 31576 ft | 451 kts | 205° |
| 2026-04-25 18:52 | 55.01552 | -4.95467 | 32278 ft | 446 kts | 205° |
| 2026-04-25 18:52 | 54.98717 | -4.97653 | 32813 ft | 444 kts | 205° |
| 2026-04-25 18:52 | 54.95891 | -4.99828 | 33348 ft | 443 kts | 205° |
| 2026-04-25 18:52 | 54.93106 | -5.01967 | 33891 ft | 442 kts | 205° |
| 2026-04-25 18:53 | 54.90299 | -5.04118 | 34400 ft | 441 kts | 205° |
| 2026-04-25 18:53 | 54.87491 | -5.06269 | 34812 ft | 441 kts | 205° |
| 2026-04-25 18:53 | 54.84686 | -5.08414 | 35233 ft | 441 kts | 205° |
| 2026-04-25 18:53 | 54.81879 | -5.10557 | 35668 ft | 441 kts | 205° |
| 2026-04-25 18:54 | 54.76259 | -5.14836 | 36533 ft | 440 kts | 205° |
| 2026-04-25 18:54 | 54.73451 | -5.16971 | 36971 ft | 440 kts | 205° |
| 2026-04-25 18:54 | 54.70651 | -5.19095 | 37407 ft | 440 kts | 204° |
| 2026-04-25 18:55 | 54.67845 | -5.21221 | 37849 ft | 440 kts | 204° |
| 2026-04-25 18:55 | 54.65043 | -5.23340 | 38291 ft | 439 kts | 204° |
| 2026-04-25 18:55 | 54.62273 | -5.25433 | 38725 ft | 439 kts | 204° |
| 2026-04-25 18:55 | 54.59476 | -5.27542 | 39098 ft | 439 kts | 204° |
| 2026-04-25 18:56 | 54.56670 | -5.29655 | 39416 ft | 440 kts | 204° |
| 2026-04-25 18:56 | 54.53864 | -5.31766 | 39733 ft | 441 kts | 205° |
| 2026-04-25 18:56 | 54.51050 | -5.33879 | 40052 ft | 441 kts | 205° |
| 2026-04-25 18:56 | 54.48224 | -5.35997 | 40205 ft | 447 kts | 205° |
| 2026-04-25 18:57 | 54.45343 | -5.38155 | 40199 ft | 456 kts | 205° |
| 2026-04-25 18:57 | 54.39448 | -5.42557 | 40208 ft | 472 kts | 205° |
| 2026-04-25 18:58 | 54.33323 | -5.47116 | 40213 ft | 487 kts | 205° |
| 2026-04-25 18:58 | 54.26995 | -5.51811 | 40208 ft | 501 kts | 204° |
| 2026-04-25 18:58 | 54.23780 | -5.54190 | 40211 ft | 504 kts | 204° |
| 2026-04-25 18:59 | 54.17607 | -5.59729 | 40192 ft | 501 kts | 216° |
| 2026-04-25 18:59 | 54.12313 | -5.67435 | 40209 ft | 501 kts | 224° |
| 2026-04-25 19:00 | 54.04313 | -5.78833 | 40194 ft | 502 kts | 218° |
| 2026-04-25 19:01 | 53.96225 | -5.90160 | 40201 ft | 502 kts | 220° |
| 2026-04-25 19:01 | 53.90730 | -5.97528 | 40195 ft | 502 kts | 219° |
| 2026-04-25 19:02 | 53.82634 | -6.08714 | 40185 ft | 502 kts | 219° |
| 2026-04-25 19:03 | 53.76298 | -6.17313 | 40186 ft | 501 kts | 220° |
| 2026-04-25 19:03 | 53.69022 | -6.27194 | 40187 ft | 501 kts | 219° |
| 2026-04-25 19:04 | 53.60896 | -6.38182 | 40188 ft | 500 kts | 219° |
| 2026-04-25 19:05 | 53.50011 | -6.52794 | 40177 ft | 500 kts | 219° |
| 2026-04-25 19:06 | 53.44563 | -6.60067 | 40177 ft | 500 kts | 219° |
| 2026-04-25 19:06 | 53.36419 | -6.70904 | 40170 ft | 500 kts | 219° |
| 2026-04-25 19:07 | 53.28228 | -6.81745 | 40179 ft | 501 kts | 219° |
| 2026-04-25 19:08 | 53.20012 | -6.92565 | 40178 ft | 501 kts | 219° |
| 2026-04-25 19:09 | 53.10907 | -7.04494 | 40168 ft | 500 kts | 219° |
| 2026-04-25 19:10 | 53.00868 | -7.17568 | 40170 ft | 500 kts | 219° |
| 2026-04-25 19:10 | 52.95388 | -7.24672 | 40167 ft | 499 kts | 219° |
| 2026-04-25 19:11 | 52.89897 | -7.31767 | 40165 ft | 500 kts | 219° |
| 2026-04-25 19:11 | 52.84446 | -7.38787 | 40162 ft | 500 kts | 219° |
| 2026-04-25 19:12 | 52.78956 | -7.45833 | 40161 ft | 500 kts | 219° |
| 2026-04-25 19:12 | 52.73448 | -7.52881 | 40164 ft | 500 kts | 219° |
| 2026-04-25 19:13 | 52.67940 | -7.59903 | 40172 ft | 499 kts | 219° |
| 2026-04-25 19:13 | 52.62474 | -7.66852 | 40166 ft | 498 kts | 219° |
| 2026-04-25 19:14 | 52.56981 | -7.73810 | 40169 ft | 498 kts | 219° |
| 2026-04-25 19:14 | 52.51478 | -7.80760 | 40172 ft | 499 kts | 219° |
| 2026-04-25 19:15 | 52.45973 | -7.87689 | 40175 ft | 499 kts | 219° |
| 2026-04-25 19:15 | 52.40456 | -7.94612 | 40176 ft | 499 kts | 219° |
| 2026-04-25 19:16 | 52.34947 | -8.01501 | 40175 ft | 497 kts | 219° |
| 2026-04-25 19:16 | 52.29448 | -8.08356 | 40178 ft | 497 kts | 219° |
| 2026-04-25 19:17 | 52.23978 | -8.15153 | 40169 ft | 497 kts | 219° |
| 2026-04-25 19:17 | 52.18463 | -8.21984 | 40183 ft | 498 kts | 219° |
| 2026-04-25 19:18 | 52.12940 | -8.28803 | 40179 ft | 498 kts | 219° |
| 2026-04-25 19:18 | 52.07422 | -8.35595 | 40181 ft | 497 kts | 219° |
| 2026-04-25 19:19 | 52.01897 | -8.42373 | 40183 ft | 496 kts | 219° |
| 2026-04-25 19:19 | 51.96383 | -8.49118 | 40183 ft | 496 kts | 219° |
| 2026-04-25 19:20 | 51.90895 | -8.55807 | 40179 ft | 497 kts | 219° |
| 2026-04-25 19:20 | 51.85367 | -8.62525 | 40176 ft | 497 kts | 219° |
| 2026-04-25 19:21 | 51.80768 | -8.68100 | 40174 ft | 497 kts | 219° |
| 2026-04-25 19:21 | 51.72463 | -8.78127 | 40189 ft | 496 kts | 218° |
| 2026-04-25 19:22 | 51.66927 | -8.84786 | 40184 ft | 496 kts | 218° |
| 2026-04-25 19:22 | 51.61677 | -8.91066 | 39561 ft | 439 kts | 218° |
| 2026-04-25 19:23 | 51.59247 | -8.93981 | 38801 ft | 433 kts | 219° |
| 2026-04-25 19:23 | 51.54460 | -8.99705 | 36885 ft | 427 kts | 219° |
| 2026-04-25 19:23 | 51.52018 | -9.02614 | 36227 ft | 447 kts | 219° |
| 2026-04-25 19:24 | 51.46940 | -9.08654 | 36215 ft | 465 kts | 218° |
| 2026-04-25 19:24 | 51.41652 | -9.14921 | 36217 ft | 478 kts | 218° |
| 2026-04-25 19:25 | 51.36306 | -9.21239 | 36218 ft | 472 kts | 218° |
| 2026-04-25 19:25 | 51.33737 | -9.24263 | 36200 ft | 443 kts | 218° |
| 2026-04-25 19:25 | 51.31314 | -9.27112 | 35867 ft | 422 kts | 218° |
| 2026-04-25 19:26 | 51.28961 | -9.29889 | 34805 ft | 420 kts | 219° |
| 2026-04-25 19:26 | 51.26605 | -9.32664 | 33634 ft | 419 kts | 218° |
| 2026-04-25 19:26 | 51.24285 | -9.35387 | 32249 ft | 420 kts | 218° |
| 2026-04-25 19:26 | 51.21914 | -9.38162 | 30715 ft | 424 kts | 218° |
| 2026-04-25 19:27 | 51.19523 | -9.40959 | 29248 ft | 425 kts | 218° |
| 2026-04-25 19:27 | 51.17938 | -9.42812 | 28591 ft | 427 kts | 217° |
| 2026-04-25 19:27 | 51.14745 | -9.46537 | 28221 ft | 417 kts | 217° |
| 2026-04-25 19:27 | 51.12415 | -9.49252 | 28224 ft | 416 kts | 217° |
| 2026-04-25 19:28 | 51.07711 | -9.54730 | 28226 ft | 418 kts | 217° |
| 2026-04-25 19:28 | 51.03028 | -9.60162 | 28223 ft | 419 kts | 217° |
| 2026-04-25 19:29 | 50.98319 | -9.65613 | 28226 ft | 419 kts | 217° |
| 2026-04-25 19:29 | 50.93594 | -9.71068 | 28228 ft | 419 kts | 217° |
| 2026-04-25 19:30 | 50.88911 | -9.76460 | 28212 ft | 418 kts | 217° |
| 2026-04-25 19:30 | 50.84090 | -9.82000 | 28225 ft | 440 kts | 217° |
| 2026-04-25 19:31 | 50.81571 | -9.84887 | 28227 ft | 452 kts | 217° |
| 2026-04-25 19:31 | 50.78996 | -9.87834 | 28232 ft | 463 kts | 217° |
| 2026-04-25 19:31 | 50.73671 | -9.93917 | 28231 ft | 478 kts | 217° |
| 2026-04-25 19:32 | 50.68269 | -10.00069 | 28228 ft | 483 kts | 217° |
| 2026-04-25 19:32 | 50.63694 | -10.05265 | 28230 ft | 484 kts | 217° |
| 2026-04-25 19:33 | 50.57322 | -10.12483 | 28223 ft | 485 kts | 217° |
| 2026-04-25 19:33 | 50.51835 | -10.18678 | 28225 ft | 485 kts | 217° |
| 2026-04-25 19:34 | 50.46351 | -10.24852 | 28232 ft | 485 kts | 216° |
| 2026-04-25 19:34 | 50.40865 | -10.31010 | 28214 ft | 484 kts | 216° |
| 2026-04-25 19:35 | 50.35389 | -10.37138 | 28214 ft | 483 kts | 216° |
| 2026-04-25 19:35 | 50.29956 | -10.43202 | 28213 ft | 482 kts | 216° |
| 2026-04-25 19:36 | 50.24494 | -10.49280 | 28215 ft | 481 kts | 216° |
| 2026-04-25 19:36 | 50.19038 | -10.55334 | 28215 ft | 481 kts | 216° |
| 2026-04-25 19:37 | 50.13619 | -10.61330 | 28232 ft | 480 kts | 216° |
| 2026-04-25 19:37 | 50.08151 | -10.67363 | 28232 ft | 480 kts | 216° |
| 2026-04-25 19:38 | 50.02695 | -10.73366 | 28232 ft | 481 kts | 216° |
| 2026-04-25 19:38 | 49.97226 | -10.79365 | 28232 ft | 481 kts | 216° |
| 2026-04-25 19:39 | 49.91757 | -10.85348 | 28229 ft | 481 kts | 216° |
| 2026-04-25 19:39 | 49.86318 | -10.91282 | 28214 ft | 481 kts | 216° |
| 2026-04-25 19:40 | 49.80832 | -10.97248 | 28232 ft | 480 kts | 215° |
| 2026-04-25 19:40 | 49.75346 | -11.03200 | 28228 ft | 480 kts | 215° |
| 2026-04-25 19:41 | 49.69869 | -11.09124 | 28230 ft | 480 kts | 215° |
| 2026-04-25 19:41 | 49.66243 | -11.13037 | 28230 ft | 480 kts | 215° |
| 2026-04-25 19:42 | 49.58997 | -11.20837 | 28216 ft | 475 kts | 215° |
| 2026-04-25 19:42 | 49.53566 | -11.26659 | 28217 ft | 474 kts | 215° |
| 2026-04-25 19:43 | 49.48125 | -11.32482 | 28232 ft | 478 kts | 215° |
| 2026-04-25 19:43 | 49.42682 | -11.38287 | 28229 ft | 480 kts | 215° |
| 2026-04-25 19:44 | 49.37179 | -11.44143 | 28214 ft | 481 kts | 215° |
| 2026-04-25 19:44 | 49.31662 | -11.49995 | 28219 ft | 482 kts | 215° |
| 2026-04-25 19:45 | 49.26151 | -11.55825 | 28220 ft | 481 kts | 215° |
| 2026-04-25 19:45 | 49.20648 | -11.61631 | 28230 ft | 480 kts | 214° |
| 2026-04-25 19:46 | 49.15162 | -11.67404 | 28216 ft | 478 kts | 214° |
| 2026-04-25 19:46 | 49.09679 | -11.73156 | 28216 ft | 477 kts | 214° |
| 2026-04-25 19:47 | 49.04239 | -11.78849 | 28216 ft | 477 kts | 214° |
| 2026-04-25 19:47 | 48.98767 | -11.84559 | 28216 ft | 477 kts | 214° |
| 2026-04-25 19:48 | 48.93283 | -11.90267 | 28220 ft | 477 kts | 214° |
| 2026-04-25 19:48 | 48.87781 | -11.95978 | 28212 ft | 478 kts | 214° |
| 2026-04-25 19:49 | 48.84105 | -11.99652 | 28201 ft | 477 kts | 210° |
| 2026-04-25 19:49 | 48.75862 | -12.04497 | 28233 ft | 478 kts | 201° |
| 2026-04-25 19:50 | 48.66483 | -12.09768 | 28219 ft | 479 kts | 201° |
| 2026-04-25 19:51 | 48.60239 | -12.13243 | 28221 ft | 478 kts | 201° |
| 2026-04-25 19:51 | 48.53992 | -12.16724 | 28218 ft | 478 kts | 201° |
| 2026-04-25 19:52 | 48.47770 | -12.20173 | 28231 ft | 478 kts | 201° |
| 2026-04-25 19:52 | 48.41533 | -12.23627 | 28220 ft | 477 kts | 201° |
| 2026-04-25 19:53 | 48.35291 | -12.27072 | 28220 ft | 477 kts | 201° |
| 2026-04-25 19:53 | 48.29062 | -12.30501 | 28220 ft | 476 kts | 201° |
| 2026-04-25 19:54 | 48.22830 | -12.33924 | 28222 ft | 476 kts | 201° |
| 2026-04-25 19:54 | 48.16632 | -12.37319 | 28225 ft | 477 kts | 201° |
| 2026-04-25 19:55 | 48.10397 | -12.40724 | 28228 ft | 477 kts | 201° |
| 2026-04-25 19:55 | 48.04159 | -12.44124 | 28236 ft | 478 kts | 201° |
| 2026-04-25 19:56 | 47.97911 | -12.47520 | 28233 ft | 478 kts | 201° |
| 2026-04-25 19:56 | 47.91681 | -12.50896 | 28224 ft | 479 kts | 201° |
| 2026-04-25 19:57 | 47.85409 | -12.54288 | 28227 ft | 479 kts | 201° |
| 2026-04-25 19:57 | 47.79143 | -12.57667 | 28227 ft | 479 kts | 201° |
| 2026-04-25 19:58 | 47.72875 | -12.61039 | 28228 ft | 478 kts | 201° |
| 2026-04-25 19:58 | 47.66607 | -12.64403 | 28225 ft | 479 kts | 201° |
| 2026-04-25 19:59 | 47.60339 | -12.67755 | 28237 ft | 478 kts | 201° |
| 2026-04-25 19:59 | 47.54143 | -12.71064 | 28239 ft | 475 kts | 201° |
| 2026-04-25 20:00 | 47.47921 | -12.74376 | 28229 ft | 475 kts | 201° |
| 2026-04-25 20:00 | 47.41696 | -12.77684 | 28225 ft | 476 kts | 202° |
| 2026-04-25 20:01 | 47.32323 | -12.82645 | 28231 ft | 477 kts | 201° |
| 2026-04-25 20:01 | 47.26056 | -12.85953 | 28229 ft | 478 kts | 201° |
| 2026-04-25 20:02 | 47.19823 | -12.89235 | 28229 ft | 479 kts | 201° |
| 2026-04-25 20:02 | 47.13539 | -12.92535 | 28236 ft | 479 kts | 201° |
| 2026-04-25 20:03 | 47.07259 | -12.95824 | 28237 ft | 479 kts | 201° |
| 2026-04-25 20:03 | 47.00969 | -12.99111 | 28229 ft | 480 kts | 201° |
| 2026-04-25 20:04 | 46.94664 | -13.02397 | 28226 ft | 480 kts | 201° |
| 2026-04-25 20:04 | 46.88392 | -13.05658 | 28231 ft | 481 kts | 201° |
| 2026-04-25 20:05 | 46.82084 | -13.08930 | 28230 ft | 481 kts | 201° |
| 2026-04-25 20:05 | 46.75750 | -13.12205 | 28246 ft | 482 kts | 201° |
| 2026-04-25 20:06 | 46.69433 | -13.15466 | 28239 ft | 481 kts | 201° |
| 2026-04-25 20:06 | 46.63114 | -13.18718 | 28240 ft | 481 kts | 201° |
| 2026-04-25 20:07 | 46.56834 | -13.21943 | 28228 ft | 482 kts | 201° |
| 2026-04-25 20:07 | 46.50487 | -13.25194 | 28231 ft | 483 kts | 201° |
| 2026-04-25 20:08 | 46.44144 | -13.28435 | 28231 ft | 483 kts | 201° |
| 2026-04-25 20:08 | 46.38865 | -13.31126 | 28229 ft | 483 kts | 201° |
| 2026-04-25 20:09 | 46.31484 | -13.34880 | 28239 ft | 482 kts | 201° |
| 2026-04-25 20:09 | 46.26186 | -13.37566 | 28239 ft | 481 kts | 201° |
| 2026-04-25 20:10 | 46.19866 | -13.40766 | 28240 ft | 481 kts | 201° |